Time;durP1;ratioP1;P1;durP2;ratioP2;P2;SDS_P1;SDS_P2;PMS_P1;PMS_P2;Temp;Humidity;BMP_temperature;BMP_pressure;BME280_temperature;BME280_humidity;BME280_pressure;Samples;Min_cycle;Max_cycle;Signal;HPM_P1;HPM_P2
2023/03/08 05:47:31;;;;;;;;;5.00;4.50;;;;;7.64;100.00;98883.47;5423606;23;49758;-67
2023/03/08 05:49:56;;;;;;;;;6.50;5.00;;;;;7.80;100.00;98916.56;4969152;28;50058;-67
2023/03/08 05:52:22;;;;;;;;;5.50;3.75;;;;;7.42;100.00;98851.19;4940556;28;52326;-67
2023/03/08 05:54:47;;;;;;;;;3.00;3.00;;;;;7.85;100.00;98911.38;4952670;28;49873;-67
2023/03/08 05:57:13;;;;;;;;;6.00;4.50;;;;;7.88;100.00;98901.78;4957894;28;49708;-67
2023/03/08 05:59:38;;;;;;;;;9.25;6.00;;;;;8.00;100.00;98933.16;4957286;28;49903;-67
2023/03/08 06:02:03;;;;;;;;;2.00;2.00;;;;;7.94;100.00;98887.88;4970433;28;49947;-67
2023/03/08 06:04:29;;;;;;;;;2.00;2.00;;;;;7.82;100.00;98878.28;4966202;28;50039;-67
2023/03/08 06:06:54;;;;;;;;;5.00;2.75;;;;;8.27;100.00;98965.44;4964561;28;49556;-68
2023/03/08 06:09:23;;;;;;;;;3.00;2.00;;;;;8.20;100.00;98942.78;4975320;28;49910;-68
2023/03/08 06:11:48;;;;;;;;;2.00;2.00;;;;;8.19;100.00;98934.06;4970292;28;50776;-68
2023/03/08 06:14:13;;;;;;;;;2.25;2.00;;;;;8.38;100.00;98975.94;4954750;28;49996;-67
2023/03/08 06:16:39;;;;;;;;;4.00;2.00;;;;;7.94;100.00;98878.31;4974882;28;52962;-68
2023/03/08 06:19:04;;;;;;;;;2.00;2.00;;;;;8.44;100.00;98997.75;4985132;28;49539;-67
2023/03/08 06:21:29;;;;;;;;;1.00;1.00;;;;;8.37;100.00;98964.63;4961604;28;50777;-69
2023/03/08 06:23:55;;;;;;;;;1.00;1.00;;;;;8.21;100.00;98927.13;4977537;28;49318;-68
2023/03/08 06:26:20;;;;;;;;;2.50;1.25;;;;;7.65;100.00;98846.91;4982208;28;49805;-68
2023/03/08 06:28:46;;;;;;;;;1.00;0.50;;;;;8.29;100.00;98941.03;4976003;28;50802;-76
2023/03/08 06:31:13;;;;;;;;;1.75;1.75;;;;;7.39;100.00;98797.25;4957169;28;50529;-75
2023/03/08 06:33:38;;;;;;;;;1.75;1.75;;;;;7.62;100.00;98810.31;4955109;28;49175;-72
2023/03/08 06:36:18;;;;;;;;;1.25;1.25;;;;;8.41;100.00;98908.00;4952891;28;49770;-70
2023/03/08 06:38:45;;;;;;;;;3.00;3.00;;;;;8.14;100.00;98865.25;4952348;28;49688;-70
2023/03/08 06:41:11;;;;;;;;;2.00;1.75;;;;;8.43;100.00;98899.25;4933589;28;53326;-69
2023/03/08 06:43:37;;;;;;;;;1.00;1.00;;;;;8.15;100.00;98866.97;4951411;28;50009;-66
2023/03/08 06:46:07;;;;;;;;;2.00;2.00;;;;;8.53;100.00;98911.47;4955368;28;49688;-68
2023/03/08 06:48:34;;;;;;;;;2.00;2.00;;;;;8.92;100.00;98955.91;4970612;28;49874;-72
2023/03/08 06:50:59;;;;;;;;;3.00;1.50;;;;;7.58;100.00;98732.00;4971446;28;50444;-73
2023/03/08 06:53:25;;;;;;;;;1.00;1.00;;;;;8.46;100.00;98840.84;4975436;28;50066;-76
2023/03/08 06:55:51;;;;;;;;;2.75;2.00;;;;;9.18;100.00;98949.75;4953696;28;49926;-72
2023/03/08 06:58:17;;;;;;;;;0.50;0.25;;;;;8.87;100.00;98888.72;4973492;28;49977;-73
2023/03/08 07:00:42;;;;;;;;;1.00;1.00;;;;;7.97;100.00;98729.34;4972437;28;50922;-72
2023/03/08 07:03:10;;;;;;;;;2.00;2.00;;;;;8.85;100.00;98845.13;4973764;28;49932;-73
2023/03/08 07:05:36;;;;;;;;;2.00;0.75;;;;;9.43;100.00;98949.66;4970595;28;49873;-76
2023/03/08 07:08:01;;;;;;;;;1.00;1.00;;;;;8.71;100.00;98823.38;4953859;28;49620;-76
2023/03/08 07:10:27;;;;;;;;;3.00;2.00;;;;;8.96;100.00;98848.56;4971160;28;49821;-73
2023/03/08 07:12:55;;;;;;;;;1.25;1.25;;;;;8.17;100.00;98676.19;4977284;28;49628;-73
2023/03/08 07:15:22;;;;;;;;;2.25;2.25;;;;;9.73;100.00;98931.19;4971008;28;50112;-76
2023/03/08 07:17:50;;;;;;;;;1.00;0.25;;;;;8.78;100.00;98805.06;4962616;28;49931;-72
2023/03/08 07:20:18;;;;;;;;;1.25;1.00;;;;;9.73;100.00;98915.44;4970256;28;50795;-70
2023/03/08 07:22:44;;;;;;;;;0.50;0.50;;;;;10.01;100.00;98925.78;4967919;28;49916;-72
2023/03/08 07:25:17;;;;;;;;;2.00;0.50;;;;;9.56;100.00;98836.09;4970394;28;49656;-72
2023/03/08 07:27:43;;;;;;;;;3.00;3.00;;;;;9.70;100.00;98864.81;4969562;28;49747;-74
2023/03/08 07:30:10;;;;;;;;;1.00;1.00;;;;;10.13;100.00;98906.47;4970794;28;49912;-72
2023/03/08 07:32:38;;;;;;;;;0.75;0.75;;;;;10.17;100.00;98923.94;4970514;28;49819;-72
2023/03/08 07:35:04;;;;;;;;;1.25;1.25;;;;;9.22;100.00;98749.00;4970956;28;50066;-73
2023/03/08 07:37:30;;;;;;;;;1.00;1.00;;;;;10.33;100.00;98933.47;4970972;28;49755;-75
2023/03/08 07:39:55;;;;;;;;;1.25;1.25;;;;;10.52;100.00;98961.31;4953019;28;52335;-73
2023/03/08 07:42:20;;;;;;;;;1.75;1.00;;;;;9.87;100.00;98838.53;4970811;28;49868;-80
2023/03/08 07:44:46;;;;;;;;;0.25;0.25;;;;;9.46;100.00;98768.94;4968752;28;49730;-86
2023/03/08 07:47:12;;;;;;;;;1.50;0.25;;;;;9.21;100.00;98686.19;4958817;28;50271;-79
2023/03/08 07:49:38;;;;;;;;;0.75;0.75;;;;;9.84;100.00;98767.75;4939623;28;51739;-78
2023/03/08 07:52:03;;;;;;;;;1.25;0.75;;;;;9.69;100.00;98740.81;4970970;28;49827;-76
2023/03/08 07:54:29;;;;;;;;;0.25;0.25;;;;;9.57;100.00;98748.78;4970129;28;49712;-76
2023/03/08 07:56:54;;;;;;;;;2.50;2.00;;;;;10.46;100.00;98818.81;4956977;28;50216;-78
2023/03/08 07:59:21;;;;;;;;;1.00;1.00;;;;;10.44;100.00;98800.47;4961515;28;49808;-78
2023/03/08 08:01:46;;;;;;;;;1.25;0.75;;;;;10.73;100.00;98823.78;4960486;28;49842;-77
2023/03/08 08:04:12;;;;;;;;;2.00;1.00;;;;;10.36;100.00;98747.22;4937277;28;50743;-76
2023/03/08 08:06:38;;;;;;;;;2.75;1.75;;;;;11.23;100.00;98919.50;4952632;28;49924;-78
2023/03/08 08:09:04;;;;;;;;;1.00;1.00;;;;;11.09;100.00;98869.75;4952879;28;51110;-78
2023/03/08 08:11:29;;;;;;;;;2.75;2.00;;;;;11.81;100.00;99010.84;4936025;28;50034;-78
2023/03/08 08:13:55;;;;;;;;;0.50;0.50;;;;;10.56;100.00;98752.25;4952124;28;49894;-76
2023/03/08 08:16:20;;;;;;;;;2.25;2.25;;;;;10.69;100.00;98803.69;4952784;28;49601;-76
2023/03/08 08:18:45;;;;;;;;;1.00;1.00;;;;;10.11;100.00;98667.91;4968699;28;49766;-77
2023/03/08 08:21:13;;;;;;;;;1.25;1.25;;;;;12.10;100.00;99004.34;4968237;28;49867;-80
2023/03/08 08:23:40;;;;;;;;;2.75;2.00;;;;;11.64;100.00;98892.72;4942107;28;49724;-74
2023/03/08 08:26:08;;;;;;;;;3.00;1.50;;;;;11.69;100.00;98869.03;4953257;28;49745;-76
2023/03/08 08:28:35;;;;;;;;;1.00;1.00;;;;;12.44;100.00;99002.09;4956853;28;49854;-78
2023/03/08 08:31:10;;;;;;;;;7.00;1.00;;;;;11.74;100.00;98843.53;4953203;28;49845;-80
2023/03/08 08:33:36;;;;;;;;;1.25;1.25;;;;;11.31;100.00;98736.41;4943148;28;49771;-78
2023/03/08 08:36:07;;;;;;;;;3.25;3.00;;;;;10.95;100.00;98681.78;4940599;28;50008;-76
2023/03/08 08:38:33;;;;;;;;;2.00;2.00;;;;;11.84;100.00;98810.97;4954398;28;51223;-75
2023/03/08 08:41:00;;;;;;;;;1.00;1.00;;;;;12.81;100.00;98962.91;4954816;28;49728;-73
2023/03/08 08:43:26;;;;;;;;;0.50;0.50;;;;;12.19;100.00;98863.03;4955147;28;49917;-79
2023/03/08 08:45:54;;;;;;;;;1.00;1.00;;;;;12.65;100.00;98948.28;4954365;28;50256;-73
2023/03/08 08:48:19;;;;;;;;;1.00;1.00;;;;;11.79;100.00;98793.53;4954373;28;50855;-72
2023/03/08 08:50:44;;;;;;;;;1.25;1.25;;;;;11.91;100.00;98804.75;4954243;28;49795;-80
2023/03/08 08:53:10;;;;;;;;;0.00;0.00;;;;;12.41;100.00;98916.16;4947385;28;49885;-75
2023/03/08 08:55:35;;;;;;;;;0.75;0.00;;;;;12.97;100.00;99030.22;4977415;28;49776;-75
2023/03/08 08:58:03;;;;;;;;;0.00;0.00;;;;;12.36;100.00;98938.22;4974303;28;50958;-76
2023/03/08 09:00:29;;;;;;;;;3.00;2.00;;;;;12.85;100.00;99018.13;4973288;28;49800;-77
2023/03/08 09:02:55;;;;;;;;;1.00;1.00;;;;;11.74;100.00;98828.63;4974059;28;50231;-77
2023/03/08 09:05:20;;;;;;;;;1.75;1.75;;;;;11.92;100.00;98898.50;4956721;28;49795;-75
2023/03/08 09:07:45;;;;;;;;;0.50;0.50;;;;;11.60;100.00;98820.06;4970616;28;50921;-74
2023/03/08 09:10:12;;;;;;;;;3.50;3.00;;;;;11.55;100.00;98777.22;4959657;28;49917;-73
2023/03/08 09:12:37;;;;;;;;;1.00;1.00;;;;;12.63;100.00;98963.19;4955370;28;49807;-73
2023/03/08 09:15:05;;;;;;;;;2.00;1.00;;;;;13.09;100.00;99008.06;4955809;28;49798;-73
2023/03/08 09:17:32;;;;;;;;;4.00;1.75;;;;;12.55;100.00;98919.47;4969982;28;50620;-75
2023/03/08 09:19:58;;;;;;;;;2.00;2.00;;;;;11.85;100.00;98748.75;4956729;28;49939;-74
2023/03/08 09:22:23;;;;;;;;;4.00;2.00;;;;;12.59;100.00;98883.41;4955665;28;49836;-76
2023/03/08 09:24:48;;;;;;;;;3.50;3.50;;;;;13.20;100.00;98992.09;4955485;28;49633;-77
2023/03/08 09:27:14;;;;;;;;;1.25;1.25;;;;;12.59;100.00;98897.44;4957068;28;50364;-73
2023/03/08 09:29:39;;;;;;;;;2.00;2.00;;;;;13.41;100.00;99002.25;4957497;28;50108;-75
2023/03/08 09:32:05;;;;;;;;;1.75;1.00;;;;;13.34;100.00;98979.56;4957103;28;49855;-76
2023/03/08 09:34:30;;;;;;;;;1.00;1.00;;;;;13.02;100.00;98932.66;4965375;28;50136;-76
2023/03/08 09:36:56;;;;;;;;;1.00;1.00;;;;;13.52;100.00;99021.41;4959942;28;51066;-74
2023/03/08 09:39:21;;;;;;;;;1.00;1.00;;;;;11.52;100.00;98698.44;4971797;28;49387;-74
2023/03/08 09:42:01;;;;;;;;;1.00;0.50;;;;;13.20;100.00;98960.50;4947732;28;50512;-76
2023/03/08 09:45:03;;;;;;;;;0.00;0.00;;;;;13.54;100.00;99006.41;4970088;28;49423;-73
2023/03/08 09:47:50;;;;;;;;;1.00;1.00;;;;;13.46;100.00;99022.38;4971294;28;50920;-76
2023/03/08 09:50:22;;;;;;;;;1.75;1.75;;;;;13.48;100.00;99026.72;4953108;28;49341;-74
2023/03/08 09:52:57;;;;;;;;;2.50;1.50;;;;;12.70;100.00;98896.41;4970422;28;49731;-77
2023/03/08 09:55:31;;;;;;;;;2.00;1.25;;;;;13.21;100.00;98963.09;4969358;28;49802;-76
2023/03/08 09:58:00;;;;;;;;;3.00;1.25;;;;;12.71;100.00;98891.09;4976799;28;50255;-75
2023/03/08 10:00:36;;;;;;;;;3.00;2.00;;;;;12.77;100.00;98890.13;4974079;28;49850;-73
2023/03/08 10:03:19;;;;;;;;;3.00;1.00;;;;;13.82;100.00;99030.47;4988795;28;49360;-74
2023/03/08 10:05:58;;;;;;;;;2.00;1.00;;;;;12.86;100.00;98829.41;4974662;28;49474;-72
2023/03/08 10:08:34;;;;;;;;;2.00;1.00;;;;;14.22;100.00;99048.13;4967605;28;50441;-77
2023/03/08 10:11:11;;;;;;;;;1.00;1.00;;;;;14.24;100.00;99002.31;4967225;28;49656;-76
2023/03/08 10:13:40;;;;;;;;;2.00;2.00;;;;;13.63;100.00;98878.81;4972092;28;49793;-77
2023/03/08 10:16:10;;;;;;;;;1.75;1.00;;;;;14.71;100.00;99026.81;4972034;28;49515;-74
2023/03/08 10:18:57;;;;;;;;;1.00;1.00;;;;;13.61;100.00;98798.88;4953337;28;49964;-76
2023/03/08 10:21:25;;;;;;;;;2.75;2.00;;;;;14.92;100.00;98982.28;4963843;28;49884;-76
2023/03/08 10:24:11;;;;;;;;;0.50;0.50;;;;;14.93;100.00;98939.09;4965227;28;49780;-76
2023/03/08 10:26:37;;;;;;;;;1.25;1.25;;;;;14.52;100.00;98833.59;4957903;28;49888;-76
2023/03/08 10:29:02;;;;;;;;;1.75;1.75;;;;;15.29;100.00;98929.31;4956648;28;50959;-75
2023/03/08 10:31:30;;;;;;;;;2.25;1.00;;;;;14.99;100.00;98873.75;4953699;28;49826;-75
2023/03/08 10:34:07;;;;;;;;;1.75;0.75;;;;;16.01;100.00;98994.28;4968912;28;49941;-75
2023/03/08 10:36:32;;;;;;;;;1.00;0.50;;;;;14.81;100.00;98811.72;4959995;28;49887;-75
2023/03/08 10:39:07;;;;;;;;;1.00;1.00;;;;;14.30;100.00;98668.75;4964215;28;50803;-75
2023/03/08 10:41:40;;;;;;;;;0.00;0.00;;;;;16.01;100.00;98957.25;4957594;28;50143;-75
2023/03/08 10:44:12;;;;;;;;;1.25;1.25;;;;;15.30;100.00;98814.75;4963649;28;49986;-77
2023/03/08 10:46:46;;;;;;;;;1.00;1.00;;;;;15.61;100.00;98862.31;4968483;28;50093;-77
2023/03/08 10:49:17;;;;;;;;;0.75;0.75;;;;;16.45;100.00;99000.91;4964776;28;49790;-77
2023/03/08 10:51:54;;;;;;;;;0.00;0.00;;;;;16.30;100.00;98990.78;4967714;28;50151;-75
2023/03/08 10:54:19;;;;;;;;;1.00;1.00;;;;;16.44;100.00;98985.06;4953538;28;49605;-76
2023/03/08 10:56:53;;;;;;;;;0.00;0.00;;;;;15.18;100.00;98779.81;4952920;28;50053;-77
2023/03/08 10:59:31;;;;;;;;;0.25;0.25;;;;;16.15;100.00;98962.13;4934794;28;52144;-78
2023/03/08 11:01:59;;;;;;;;;0.00;0.00;;;;;15.29;100.00;98826.22;4940076;28;49714;-75
2023/03/08 11:04:28;;;;;;;;;0.00;0.00;;;;;16.60;100.00;99028.72;4952742;28;50079;-74
2023/03/08 11:06:54;;;;;;;;;0.25;0.00;;;;;15.82;100.00;98897.84;4956352;28;49877;-74
2023/03/08 11:09:28;;;;;;;;;0.00;0.00;;;;;16.72;100.00;99032.78;4956524;28;51053;-74
2023/03/08 11:11:58;;;;;;;;;2.75;1.00;;;;;16.38;100.00;98956.97;4976446;28;49833;-84
2023/03/08 11:14:28;;;;;;;;;2.25;2.25;;;;;16.63;100.00;99031.25;4953257;28;49717;-73
2023/03/08 11:16:56;;;;;;;;;1.00;1.00;;;;;16.92;100.00;99014.47;4961329;28;50057;-75
2023/03/08 11:19:24;;;;;;;;;0.00;0.00;;;;;17.04;100.00;99024.66;4949958;28;49869;-75
2023/03/08 11:21:55;;;;;;;;;1.00;1.00;;;;;17.12;100.00;99027.06;4956816;28;50309;-78
2023/03/08 11:24:42;;;;;;;;;0.50;0.50;;;;;17.17;100.00;99023.31;4963347;28;49969;-74
2023/03/08 11:27:29;;;;;;;;;1.00;1.00;;;;;16.71;100.00;98986.88;4951365;28;49982;-70
2023/03/08 11:30:00;;;;;;;;;2.50;0.00;;;;;17.23;100.00;99032.00;4952627;28;50516;-74
2023/03/08 11:32:59;;;;;;;;;1.00;0.00;;;;;17.39;100.00;99030.56;4970436;28;49958;-74
2023/03/08 11:35:31;;;;;;;;;0.00;0.00;;;;;17.57;100.00;99027.28;4970954;28;49825;-73
2023/03/08 11:38:08;;;;;;;;;0.50;0.50;;;;;17.58;100.00;99031.66;4971070;28;49790;-72
2023/03/08 11:40:54;;;;;;;;;1.75;0.00;;;;;17.60;100.00;99027.16;4969319;28;49767;-72
2023/03/08 11:43:39;;;;;;;;;1.25;1.00;;;;;17.63;100.00;99032.34;4958172;28;49976;-75
2023/03/08 11:46:20;;;;;;;;;2.00;1.00;;;;;17.57;100.00;99016.66;4946831;28;50071;-73
2023/03/08 11:48:53;;;;;;;;;1.50;1.00;;;;;17.28;100.00;98991.16;4968629;28;50094;-74
2023/03/08 11:51:36;;;;;;;;;1.00;0.00;;;;;17.76;100.00;99023.97;4975592;28;50692;-74
2023/03/08 11:54:43;;;;;;;;;1.75;0.00;;;;;17.59;100.00;98992.72;4983453;28;49577;-76
2023/03/08 11:57:16;;;;;;;;;0.00;0.00;;;;;15.28;100.00;98599.81;4967279;28;49811;-82
2023/03/08 11:59:51;;;;;;;;;1.00;1.00;;;;;17.76;100.00;99019.56;4961145;28;49930;-79
2023/03/08 12:02:23;;;;;;;;;1.00;1.00;;;;;16.58;100.00;98821.25;4982969;28;50248;-78
2023/03/08 12:04:57;;;;;;;;;0.25;0.00;;;;;16.62;100.00;98784.94;4980215;28;50380;-72
2023/03/08 12:07:28;;;;;;;;;0.25;0.00;;;;;18.20;100.00;99017.91;4984637;28;49433;-81
2023/03/08 12:10:14;;;;;;;;;0.75;0.75;;;;;18.33;100.00;99033.38;4984481;28;49833;-80
2023/03/08 12:12:45;;;;;;;;;0.50;0.00;;;;;17.35;100.00;98837.97;4963092;28;51503;-76
2023/03/08 12:15:24;;;;;;;;;;;;;;;;;;;;;
2023/03/08 12:17:55;;;;;;;;;0.25;0.25;;;;;16.58;100.00;98753.25;4982840;28;71758;-79
2023/03/08 12:20:22;;;;;;;;;0.00;0.00;;;;;17.34;100.00;98870.72;4977915;28;50246;-80
2023/03/08 12:22:58;;;;;;;;;1.00;1.00;;;;;18.34;100.00;99009.41;4976187;28;49812;-71
2023/03/08 12:25:34;;;;;;;;;0.00;0.00;;;;;18.25;100.00;98999.16;4968135;28;49920;-75
2023/03/08 12:28:23;;;;;;;;;0.00;0.00;;;;;18.27;100.00;99005.25;4968053;28;49787;-74
2023/03/08 12:31:24;;;;;;;;;0.00;0.00;;;;;18.16;100.00;99005.69;4951507;28;49822;-67
2023/03/08 12:33:53;;;;;;;;;0.00;0.00;;;;;17.98;100.00;98991.28;4966591;28;49746;-66
2023/03/08 12:36:21;;;;;;;;;0.00;0.00;;;;;17.79;100.00;98973.47;4952692;28;49993;-68
2023/03/08 12:38:54;;;;;;;;;0.00;0.00;;;;;17.82;100.00;99000.75;4970241;28;49877;-68
2023/03/08 12:41:29;;;;;;;;;1.75;0.00;;;;;17.62;100.00;98974.91;4969896;28;49914;-67
2023/03/08 12:44:20;;;;;;;;;0.00;0.00;;;;;17.62;100.00;98982.84;4963426;28;50629;-70
2023/03/08 12:46:49;;;;;;;;;0.00;0.00;;;;;17.66;100.00;99007.47;4963476;28;50454;-73
2023/03/08 12:49:29;;;;;;;;;0.75;0.75;;;;;17.50;100.00;98979.78;4959414;28;49811;-73
2023/03/08 12:52:01;;;;;;;;;1.00;0.00;;;;;16.73;100.00;98867.59;4955063;28;49918;-76
2023/03/08 12:54:31;;;;;;;;;2.00;0.75;;;;;17.43;100.00;98957.91;4960888;28;50026;-72
2023/03/08 12:56:57;;;;;;;;;0.25;0.25;;;;;16.52;100.00;98797.66;4952612;28;49899;-71
2023/03/08 12:59:27;;;;;;;;;0.00;0.00;;;;;17.61;100.00;98975.81;4961065;28;49748;-75
2023/03/08 13:01:55;;;;;;;;;1.00;0.00;;;;;17.71;100.00;98971.94;4964309;28;50115;-77
2023/03/08 13:04:34;;;;;;;;;0.00;0.00;;;;;17.11;100.00;98874.22;4956527;28;51035;-72
2023/03/08 13:07:23;;;;;;;;;0.00;0.00;;;;;17.31;100.00;98913.25;4968872;28;49807;-73
2023/03/08 13:10:16;;;;;;;;;0.00;0.00;;;;;17.30;100.00;98924.81;4963673;28;49859;-70
2023/03/08 13:13:14;;;;;;;;;3.75;0.00;;;;;17.64;100.00;98965.09;4941184;28;49877;-77
2023/03/08 13:15:39;;;;;;;;;0.00;0.00;;;;;17.03;100.00;98869.16;4965359;28;50001;-79
2023/03/08 13:18:08;;;;;;;;;1.75;0.00;;;;;17.67;100.00;98967.66;4966642;28;49801;-73
2023/03/08 13:20:39;;;;;;;;;2.00;0.00;;;;;17.68;100.00;98963.22;4963467;28;50087;-71
2023/03/08 13:23:26;;;;;;;;;3.00;1.00;;;;;17.62;100.00;98961.63;4946562;28;49944;-70
2023/03/08 13:26:37;;;;;;;;;0.50;0.00;;;;;17.04;100.00;98905.34;4968096;28;49993;-69
2023/03/08 13:29:12;;;;;;;;;1.00;1.00;;;;;16.97;100.00;98911.78;4941130;28;49937;-75
2023/03/08 13:31:38;;;;;;;;;0.00;0.00;;;;;17.35;100.00;98967.91;4949757;28;50088;-73
2023/03/08 13:34:03;;;;;;;;;0.00;0.00;;;;;17.47;100.00;98970.16;4968221;28;49739;-74
2023/03/08 13:36:32;;;;;;;;;2.25;1.50;;;;;17.20;100.00;98899.53;4968639;28;49930;-66
2023/03/08 13:39:14;;;;;;;;;0.00;0.00;;;;;17.53;100.00;98961.97;4971023;28;49657;-74
2023/03/08 13:41:44;;;;;;;;;1.00;1.00;;;;;17.46;100.00;98945.38;4969933;28;49821;-71
2023/03/08 13:44:21;;;;;;;;;6.75;5.50;;;;;17.60;100.00;98952.00;4965084;28;49292;-66
2023/03/08 13:46:50;;;;;;;;;0.75;0.75;;;;;17.61;100.00;98935.16;4960937;28;52136;-70
2023/03/08 13:49:31;;;;;;;;;1.00;0.00;;;;;17.72;100.00;98930.34;4953591;28;49731;-73
2023/03/08 13:51:59;;;;;;;;;0.25;0.00;;;;;17.87;100.00;98939.53;4962635;28;50101;-66
2023/03/08 13:54:30;;;;;;;;;2.00;1.00;;;;;17.63;100.00;98936.81;4959861;28;49888;-67
2023/03/08 13:57:01;;;;;;;;;1.25;1.00;;;;;17.46;100.00;98947.19;4956901;28;49957;-73
2023/03/08 13:59:28;;;;;;;;;1.00;1.00;;;;;17.05;100.00;98901.78;4970408;28;49695;-73
2023/03/08 14:01:54;;;;;;;;;4.50;1.00;;;;;16.89;100.00;98863.50;4956291;28;49601;-82
2023/03/08 14:04:26;;;;;;;;;1.00;1.00;;;;;16.87;100.00;98858.22;4954235;28;49646;-74
2023/03/08 14:06:54;;;;;;;;;0.00;0.00;;;;;16.82;100.00;98876.09;4953705;28;49848;-77
2023/03/08 14:09:20;;;;;;;;;0.00;0.00;;;;;16.84;100.00;98907.84;4957382;28;49810;-73
2023/03/08 14:11:58;;;;;;;;;0.00;0.00;;;;;16.61;100.00;98882.09;4957065;28;50104;-70
2023/03/08 14:14:37;;;;;;;;;0.00;0.00;;;;;16.23;100.00;98841.00;4960946;28;49842;-72
2023/03/08 14:17:03;;;;;;;;;0.00;0.00;;;;;16.47;100.00;98916.97;4959454;28;50697;-77
2023/03/08 14:19:37;;;;;;;;;1.00;0.00;;;;;16.47;100.00;98948.75;4960017;28;49853;-70
2023/03/08 14:22:17;;;;;;;;;0.50;0.00;;;;;15.44;100.00;98796.66;4966373;28;49912;-76
2023/03/08 14:24:49;;;;;;;;;2.50;1.00;;;;;16.23;100.00;98962.78;4962688;28;49958;-73
2023/03/08 14:27:15;;;;;;;;;0.00;0.00;;;;;16.08;100.00;98958.78;4953439;28;50562;-74
2023/03/08 14:29:42;;;;;;;;;0.00;0.00;;;;;15.95;100.00;98953.00;4953537;28;49695;-64
2023/03/08 14:32:11;;;;;;;;;0.00;0.00;;;;;15.86;100.00;98963.88;4961682;28;49846;-70
2023/03/08 14:34:38;;;;;;;;;0.25;0.00;;;;;15.16;100.00;98870.66;4961590;28;49789;-74
2023/03/08 14:37:26;;;;;;;;;0.00;0.00;;;;;15.52;100.00;98945.41;4965064;28;50967;-72
2023/03/08 14:39:54;;;;;;;;;0.75;0.75;;;;;15.08;100.00;98892.00;4964867;28;49888;-70
2023/03/08 14:42:24;;;;;;;;;0.00;0.00;;;;;15.31;100.00;98967.16;4973903;28;49902;-71
2023/03/08 14:44:57;;;;;;;;;0.50;0.00;;;;;15.21;100.00;98960.38;4962937;28;49605;-68
2023/03/08 14:47:26;;;;;;;;;0.00;0.00;;;;;14.77;100.00;98901.66;4955184;28;49984;-74
2023/03/08 14:50:00;;;;;;;;;0.00;0.00;;;;;14.51;100.00;98897.03;4963004;28;49595;-84
2023/03/08 14:52:30;;;;;;;;;1.00;1.00;;;;;13.78;100.00;98820.44;4974742;28;49728;-75
2023/03/08 14:54:56;;;;;;;;;0.00;0.00;;;;;14.43;100.00;98951.75;4970354;28;49734;-70
2023/03/08 14:57:25;;;;;;;;;1.50;0.00;;;;;14.64;100.00;98988.22;4975326;28;50651;-73
2023/03/08 14:59:52;;;;;;;;;1.25;0.00;;;;;14.23;100.00;98923.19;4962110;28;49705;-77
2023/03/08 15:02:18;;;;;;;;;0.00;0.00;;;;;14.18;100.00;98917.13;4967136;28;49969;-77
2023/03/08 15:04:45;;;;;;;;;0.00;0.00;;;;;14.00;100.00;98902.59;4959899;28;49900;-79
2023/03/08 15:07:22;;;;;;;;;0.25;0.25;;;;;14.27;100.00;98956.50;4959937;28;50002;-76
2023/03/08 15:09:50;;;;;;;;;0.00;0.00;;;;;13.91;100.00;98835.09;4960137;28;49849;-80
2023/03/08 15:12:16;;;;;;;;;1.00;1.00;;;;;14.08;100.00;98868.09;4953605;28;50022;-79
2023/03/08 15:14:42;;;;;;;;;0.50;0.50;;;;;13.89;100.00;98826.31;4976274;28;50154;-71
2023/03/08 15:17:07;;;;;;;;;0.00;0.00;;;;;14.23;100.00;98863.34;4952513;28;50184;-70
2023/03/08 15:19:32;;;;;;;;;0.00;0.00;;;;;13.75;100.00;98796.78;4954234;28;49773;-75
2023/03/08 15:22:00;;;;;;;;;0.25;0.25;;;;;14.19;100.00;98818.59;4958502;28;49776;-76
2023/03/08 15:24:26;;;;;;;;;0.75;0.75;;;;;15.08;100.00;98934.28;4965422;28;49755;-80
2023/03/08 15:26:51;;;;;;;;;0.25;0.25;;;;;13.71;100.00;98697.56;4953804;28;50813;-73
2023/03/08 15:29:31;;;;;;;;;1.25;0.00;;;;;14.41;100.00;98825.06;4952635;28;49849;-74
2023/03/08 15:31:57;;;;;;;;;0.50;0.00;;;;;14.75;100.00;98896.38;4947569;28;49963;-75
2023/03/08 15:34:24;;;;;;;;;0.00;0.00;;;;;14.01;100.00;98765.38;4964815;28;49740;-80
2023/03/08 15:36:51;;;;;;;;;0.00;0.00;;;;;14.01;100.00;98785.63;4954222;28;51554;-74
2023/03/08 15:39:18;;;;;;;;;0.00;0.00;;;;;14.91;100.00;98944.41;4953044;28;49887;-76
2023/03/08 15:41:43;;;;;;;;;0.00;0.00;;;;;13.81;100.00;98787.88;4951656;28;49691;-75
2023/03/08 15:44:08;;;;;;;;;1.00;0.00;;;;;14.46;100.00;98848.72;4951633;28;49721;-73
2023/03/08 15:46:34;;;;;;;;;0.25;0.25;;;;;14.53;100.00;98884.63;4950777;28;49721;-73
2023/03/08 15:48:59;;;;;;;;;1.25;0.25;;;;;14.25;100.00;98819.28;4950933;28;49716;-75
2023/03/08 15:51:30;;;;;;;;;0.25;0.00;;;;;15.05;100.00;98979.25;4951919;28;49762;-72
2023/03/08 15:53:56;;;;;;;;;0.00;0.00;;;;;14.80;100.00;98923.56;4952047;28;49792;-78
2023/03/08 15:56:21;;;;;;;;;0.00;0.00;;;;;14.73;100.00;98914.06;4952108;28;50007;-69
2023/03/08 15:58:47;;;;;;;;;0.00;0.00;;;;;14.79;100.00;98934.16;4951901;28;49912;-69
2023/03/08 16:01:13;;;;;;;;;0.25;0.25;;;;;14.75;100.00;98970.34;4954902;28;49808;-72
2023/03/08 16:03:42;;;;;;;;;0.00;0.00;;;;;13.50;100.00;98777.16;4970587;28;50359;-78
2023/03/08 16:06:09;;;;;;;;;0.25;0.25;;;;;14.40;100.00;98901.66;4966329;28;50731;-76
2023/03/08 16:08:36;;;;;;;;;5.75;4.00;;;;;14.31;100.00;98932.66;4963055;28;49818;-72
2023/03/08 16:11:05;;;;;;;;;0.75;0.75;;;;;13.64;100.00;98848.91;4982966;28;50182;-77
2023/03/08 16:13:31;;;;;;;;;0.00;0.00;;;;;14.33;100.00;98946.69;4980430;28;50041;-76
2023/03/08 16:15:58;;;;;;;;;0.00;0.00;;;;;13.66;100.00;98847.09;4952399;28;50298;-79
2023/03/08 16:18:23;;;;;;;;;0.00;0.00;;;;;13.49;100.00;98843.94;4951874;28;49789;-73
2023/03/08 16:20:49;;;;;;;;;1.00;1.00;;;;;13.60;100.00;98887.63;4951759;28;50007;-69
2023/03/08 16:23:14;;;;;;;;;2.00;2.00;;;;;13.82;100.00;98935.53;4951979;28;49803;-72
2023/03/08 16:25:42;;;;;;;;;6.00;3.75;;;;;13.56;100.00;98908.84;4933917;28;50427;-73
2023/03/08 16:28:08;;;;;;;;;3.50;3.00;;;;;13.91;100.00;98969.63;4958629;28;49714;-69
2023/03/08 16:30:33;;;;;;;;;0.00;0.00;;;;;13.86;100.00;98992.56;4951293;28;49847;-73
2023/03/08 16:32:59;;;;;;;;;1.00;1.00;;;;;13.34;100.00;98934.75;4951386;28;49886;-74
2023/03/08 16:35:24;;;;;;;;;1.00;1.00;;;;;13.00;100.00;98900.22;4951626;28;50668;-78
2023/03/08 16:37:52;;;;;;;;;1.50;1.50;;;;;13.40;100.00;98961.84;4970166;28;49719;-70
2023/03/08 16:40:18;;;;;;;;;2.50;1.50;;;;;13.43;100.00;98918.75;4950424;28;49990;-76
2023/03/08 16:42:43;;;;;;;;;1.00;1.00;;;;;13.30;100.00;98907.56;4956303;28;49924;-75
2023/03/08 16:45:09;;;;;;;;;0.75;0.00;;;;;12.97;100.00;98879.22;4954632;28;64668;-72
2023/03/08 16:47:34;;;;;;;;;0.25;0.25;;;;;12.02;100.00;98709.91;4962468;28;49949;-74
2023/03/08 16:49:59;;;;;;;;;0.25;0.25;;;;;13.38;100.00;98973.31;4957752;28;49625;-75
2023/03/08 16:52:25;;;;;;;;;1.00;1.00;;;;;13.08;100.00;98937.84;4951474;28;49769;-72
2023/03/08 16:54:50;;;;;;;;;0.25;0.25;;;;;13.24;100.00;98952.50;4951057;28;49700;-72
2023/03/08 16:57:16;;;;;;;;;0.25;0.25;;;;;13.30;100.00;98956.78;4962268;28;52506;-75
2023/03/08 16:59:42;;;;;;;;;0.00;0.00;;;;;12.95;100.00;98904.72;4976623;28;50632;-75
2023/03/08 17:02:16;;;;;;;;;2.00;2.00;;;;;13.16;100.00;98942.06;4970068;28;49803;-78
2023/03/08 17:04:43;;;;;;;;;3.00;2.00;;;;;13.31;100.00;98975.19;4975109;28;49986;-71
2023/03/08 17:07:09;;;;;;;;;1.00;1.00;;;;;13.37;100.00;98983.00;4974164;28;49889;-74
2023/03/08 17:09:35;;;;;;;;;0.00;0.00;;;;;13.20;100.00;98958.72;4971164;28;49877;-74
2023/03/08 17:12:01;;;;;;;;;2.75;2.00;;;;;13.37;100.00;98990.91;4971913;28;49917;-74
2023/03/08 17:14:26;;;;;;;;;1.00;1.00;;;;;12.79;100.00;98907.63;4969110;28;50828;-73
2023/03/08 17:16:52;;;;;;;;;1.50;0.50;;;;;13.03;100.00;98924.78;4961165;28;50297;-72
2023/03/08 17:19:17;;;;;;;;;1.00;0.00;;;;;13.11;100.00;98916.69;4961190;28;49945;-73
2023/03/08 17:21:42;;;;;;;;;0.50;0.50;;;;;12.92;100.00;98907.41;4954145;28;49836;-73
2023/03/08 17:24:12;;;;;;;;;0.25;0.25;;;;;13.21;100.00;98978.03;4953957;28;62093;-71
2023/03/08 17:26:42;;;;;;;;;0.00;0.00;;;;;13.22;100.00;98975.41;4954124;28;49820;-74